createdAt,value
2019-06-27T00:01:05.328Z,23.39
2019-06-27T00:05:07.557Z,23.39
2019-06-27T00:09:11.509Z,23.39
2019-06-27T00:13:13.732Z,23.39
2019-06-27T00:17:15.963Z,23.39
2019-06-27T00:21:18.180Z,23.40
2019-06-27T00:25:20.424Z,23.40
2019-06-27T00:29:22.635Z,23.39
2019-06-27T00:33:24.851Z,23.40
2019-06-27T00:37:27.071Z,23.39
2019-06-27T00:41:29.271Z,23.40
2019-06-27T00:45:31.505Z,23.40
2019-06-27T00:49:33.709Z,23.41
2019-06-27T00:53:35.941Z,23.40
2019-06-27T00:57:38.178Z,23.41
2019-06-27T01:01:40.402Z,23.41
2019-06-27T01:05:42.617Z,23.40
2019-06-27T01:09:44.841Z,23.40
2019-06-27T01:13:47.072Z,23.41
2019-06-27T01:17:49.299Z,23.40
2019-06-27T01:21:51.516Z,23.41
2019-06-27T01:25:53.748Z,23.41
2019-06-27T01:29:55.955Z,23.41
2019-06-27T01:33:58.166Z,23.41
2019-06-27T01:38:00.395Z,23.41
2019-06-27T01:42:02.629Z,23.41
2019-06-27T01:46:05.040Z,23.41
2019-06-27T01:50:07.254Z,23.41
2019-06-27T01:54:09.476Z,23.41
2019-06-27T01:58:11.684Z,23.41
2019-06-27T02:02:13.920Z,23.41
2019-06-27T02:06:17.156Z,23.40
2019-06-27T02:10:19.360Z,23.40
2019-06-27T02:14:21.604Z,23.40
2019-06-27T02:18:23.865Z,23.41
2019-06-27T02:22:26.092Z,23.42
2019-06-27T02:26:28.311Z,23.41
2019-06-27T02:30:30.579Z,23.41
2019-06-27T02:34:32.789Z,23.41
2019-06-27T02:38:35.031Z,23.40
2019-06-27T02:42:37.260Z,23.41
2019-06-27T02:46:39.467Z,23.40
2019-06-27T02:50:41.720Z,23.40
2019-06-27T02:54:43.969Z,23.40
2019-06-27T02:58:46.194Z,23.40
2019-06-27T03:02:48.467Z,23.40
2019-06-27T03:06:50.714Z,23.40
2019-06-27T03:10:52.908Z,23.40
2019-06-27T03:14:55.137Z,23.40
2019-06-27T03:18:57.358Z,23.39
2019-06-27T03:22:59.583Z,23.40
2019-06-27T03:27:01.790Z,23.39
2019-06-27T03:31:04.034Z,23.39
2019-06-27T03:35:06.322Z,23.39
2019-06-27T03:39:08.612Z,23.39
2019-06-27T03:43:10.853Z,23.39
2019-06-27T03:47:13.060Z,23.39
2019-06-27T03:51:15.276Z,23.39
2019-06-27T03:55:17.504Z,23.39
2019-06-27T03:59:19.721Z,23.39
2019-06-27T04:03:21.947Z,23.39
2019-06-27T04:07:24.174Z,23.39
2019-06-27T04:11:26.446Z,23.38
2019-06-27T04:15:28.670Z,23.38
2019-06-27T04:19:30.880Z,23.38
2019-06-27T04:23:33.148Z,23.39
2019-06-27T04:27:35.384Z,23.39
2019-06-27T04:31:37.597Z,23.37
2019-06-27T04:35:39.932Z,23.38
2019-06-27T04:39:42.161Z,23.38
2019-06-27T04:43:44.398Z,23.38
2019-06-27T04:47:46.622Z,23.39
2019-06-27T04:51:48.867Z,23.38
2019-06-27T04:55:51.096Z,23.38
2019-06-27T04:59:54.413Z,23.39
2019-06-27T05:03:56.832Z,23.39
2019-06-27T05:07:59.041Z,23.39
2019-06-27T05:12:01.270Z,23.32
2019-06-27T05:16:03.561Z,23.29
2019-06-27T05:20:05.799Z,23.31
2019-06-27T05:24:08.026Z,23.32
2019-06-27T05:28:10.231Z,23.34
2019-06-27T05:32:12.459Z,23.33
2019-06-27T05:36:14.679Z,23.36
2019-06-27T05:40:16.945Z,23.36
2019-06-27T05:44:19.155Z,23.36
2019-06-27T05:48:21.393Z,23.35
2019-06-27T05:52:23.619Z,23.36
2019-06-27T05:56:25.836Z,23.36
2019-06-27T06:00:29.621Z,23.35
2019-06-27T06:04:32.025Z,23.35
2019-06-27T06:08:34.255Z,23.35
2019-06-27T06:12:36.464Z,23.34
2019-06-27T06:16:38.680Z,23.34
2019-06-27T06:20:40.899Z,23.33
2019-06-27T06:24:43.112Z,23.36
2019-06-27T06:28:45.353Z,23.35
2019-06-27T06:32:47.561Z,23.35
2019-06-27T06:36:49.784Z,23.38
2019-06-27T06:40:52.012Z,23.41
2019-06-27T06:44:54.234Z,23.36
2019-06-27T06:48:56.454Z,23.36
2019-06-27T06:52:58.668Z,23.35
2019-06-27T06:57:00.901Z,23.35
2019-06-27T07:01:03.099Z,23.34
2019-06-27T07:05:05.449Z,23.35
2019-06-27T07:09:07.725Z,23.35
2019-06-27T07:13:09.960Z,23.34
2019-06-27T07:17:12.183Z,23.34
2019-06-27T07:21:14.428Z,23.33
2019-06-27T07:25:16.647Z,23.34
2019-06-27T07:29:18.928Z,23.34
2019-06-27T07:33:21.168Z,23.34
2019-06-27T07:37:23.393Z,23.33
2019-06-27T07:41:25.706Z,23.33
2019-06-27T07:45:27.915Z,23.32
2019-06-27T07:49:33.191Z,23.32
2019-06-27T07:53:34.008Z,23.33
2019-06-27T07:57:36.239Z,23.34
2019-06-27T08:01:38.447Z,23.34
2019-06-27T08:05:40.697Z,23.34
2019-06-27T08:09:42.908Z,23.34
2019-06-27T08:13:45.121Z,23.33
2019-06-27T08:17:47.367Z,23.33
2019-06-27T08:21:49.594Z,23.33
2019-06-27T08:25:51.791Z,23.36
2019-06-27T08:29:54.021Z,23.35
2019-06-27T08:33:56.236Z,23.36
2019-06-27T08:37:58.448Z,23.36
2019-06-27T08:42:00.679Z,23.34
2019-06-27T08:46:02.891Z,23.36
2019-06-27T08:50:05.174Z,23.36
2019-06-27T08:54:07.340Z,23.36
2019-06-27T08:58:09.566Z,23.38
2019-06-27T09:02:11.774Z,23.39
2019-06-27T09:06:14.005Z,23.36
2019-06-27T09:10:16.256Z,23.38
2019-06-27T09:14:19.455Z,23.38
2019-06-27T09:18:21.611Z,23.38
2019-06-27T09:22:23.832Z,23.39
2019-06-27T09:26:26.076Z,23.39
2019-06-27T09:30:28.318Z,23.38
2019-06-27T09:34:30.572Z,23.37
2019-06-27T09:38:32.776Z,23.37
2019-06-27T09:42:35.004Z,23.38
2019-06-27T09:46:37.284Z,23.38
2019-06-27T09:50:39.527Z,23.38
2019-06-27T09:54:41.752Z,23.39
2019-06-27T09:58:44.064Z,23.38
2019-06-27T10:02:46.287Z,23.39
2019-06-27T10:06:48.500Z,23.40
2019-06-27T10:10:50.730Z,23.41
2019-06-27T10:14:53.065Z,23.40
2019-06-27T10:18:55.297Z,23.41
2019-06-27T10:22:57.504Z,23.40
2019-06-27T10:26:59.715Z,23.40
2019-06-27T10:31:01.957Z,23.41
2019-06-27T10:35:04.189Z,23.41
2019-06-27T10:39:06.463Z,23.42
2019-06-27T10:43:08.684Z,23.41
2019-06-27T10:47:10.878Z,23.40
2019-06-27T10:51:13.103Z,23.40
2019-06-27T10:55:15.353Z,23.41
2019-06-27T10:59:17.603Z,23.41
2019-06-27T11:03:19.838Z,23.41
2019-06-27T11:07:22.143Z,23.40
2019-06-27T11:11:24.359Z,23.42
2019-06-27T11:15:26.617Z,23.40
2019-06-27T11:19:28.883Z,23.41
2019-06-27T11:23:31.101Z,23.41
2019-06-27T11:27:33.305Z,23.42
2019-06-27T11:31:35.627Z,23.41
2019-06-27T11:35:37.843Z,23.41
2019-06-27T11:39:40.120Z,23.41
2019-06-27T11:43:42.515Z,23.41
2019-06-27T11:47:44.772Z,23.40
2019-06-27T11:51:46.970Z,23.40
2019-06-27T11:55:49.235Z,23.41
2019-06-27T11:59:51.511Z,23.41
2019-06-27T12:03:53.685Z,23.41
2019-06-27T12:07:56.017Z,23.41
2019-06-27T12:11:58.248Z,23.41
2019-06-27T12:16:00.644Z,23.40
2019-06-27T12:20:03.860Z,23.42
2019-06-27T12:24:06.158Z,23.42
2019-06-27T12:28:08.375Z,23.42
2019-06-27T12:32:10.606Z,23.41
2019-06-27T12:36:12.840Z,23.42
2019-06-27T12:40:15.053Z,23.42
2019-06-27T12:44:17.275Z,23.43
2019-06-27T12:48:19.478Z,23.41
2019-06-27T12:52:21.700Z,23.43
2019-06-27T12:56:23.936Z,23.42
2019-06-27T13:00:26.156Z,23.42
2019-06-27T13:04:28.624Z,23.42
2019-06-27T13:08:30.900Z,23.42
2019-06-27T13:12:33.140Z,23.42
2019-06-27T13:16:35.363Z,23.43
2019-06-27T13:20:37.602Z,23.44
2019-06-27T13:24:41.655Z,23.46
2019-06-27T13:28:45.572Z,23.45
2019-06-27T13:32:47.784Z,23.45
2019-06-27T13:36:50.078Z,23.45
2019-06-27T13:40:52.313Z,23.45
2019-06-27T13:44:54.545Z,23.44
2019-06-27T13:48:56.834Z,23.47
2019-06-27T13:52:59.090Z,23.47
2019-06-27T13:57:01.298Z,23.48
2019-06-27T14:01:03.566Z,23.49
2019-06-27T14:05:05.809Z,23.47
2019-06-27T14:09:08.033Z,23.47
2019-06-27T14:13:10.243Z,23.51
2019-06-27T14:17:12.499Z,23.52
2019-06-27T14:21:14.762Z,23.49
2019-06-27T14:25:16.940Z,23.48
2019-06-27T14:29:19.216Z,23.47
2019-06-27T14:33:21.387Z,23.45
2019-06-27T14:37:23.705Z,23.46
2019-06-27T14:41:25.915Z,23.48
2019-06-27T14:45:28.147Z,23.48
2019-06-27T14:49:30.366Z,23.47
2019-06-27T14:53:32.586Z,23.48
2019-06-27T14:57:34.792Z,23.48
2019-06-27T15:01:37.005Z,23.49
2019-06-27T15:05:39.217Z,23.48
2019-06-27T15:09:41.456Z,23.47
2019-06-27T15:13:43.673Z,23.48
2019-06-27T15:17:45.892Z,23.50
2019-06-27T15:21:48.121Z,23.48
2019-06-27T15:25:50.355Z,23.49
2019-06-27T15:29:52.705Z,23.51
2019-06-27T15:33:55.043Z,23.53
2019-06-27T15:37:57.318Z,23.59
2019-06-27T15:41:59.540Z,23.53
2019-06-27T15:46:01.987Z,23.52
2019-06-27T15:50:04.258Z,23.51
2019-06-27T15:54:06.455Z,23.52
2019-06-27T15:58:08.726Z,23.54
2019-06-27T16:02:10.969Z,23.56
2019-06-27T16:06:15.295Z,23.56
2019-06-27T16:10:17.568Z,23.57
2019-06-27T16:14:19.816Z,23.61
2019-06-27T16:18:22.036Z,23.61
2019-06-27T16:22:24.260Z,23.65
2019-06-27T16:26:26.504Z,23.69
2019-06-27T16:30:28.775Z,23.71
2019-06-27T16:34:31.018Z,23.75
2019-06-27T16:38:33.257Z,23.72
2019-06-27T16:42:35.507Z,23.64
2019-06-27T16:46:37.721Z,23.55
2019-06-27T16:50:40.065Z,23.58
2019-06-27T16:54:42.318Z,23.64
2019-06-27T16:58:44.664Z,23.64
2019-06-27T17:02:46.975Z,23.65
2019-06-27T17:06:49.220Z,23.62
2019-06-27T17:10:51.420Z,23.54
2019-06-27T17:14:53.658Z,23.64
2019-06-27T17:18:55.886Z,23.56
2019-06-27T17:22:58.197Z,23.54
2019-06-27T17:27:00.419Z,23.45
2019-06-27T17:31:02.668Z,23.40
2019-06-27T17:35:04.900Z,23.35
2019-06-27T17:39:07.140Z,23.41
2019-06-27T17:43:09.340Z,23.40
2019-06-27T17:47:11.575Z,23.30
2019-06-27T17:51:13.812Z,23.33
2019-06-27T17:55:16.145Z,23.35
2019-06-27T17:59:19.488Z,23.24
2019-06-27T18:03:21.717Z,23.24
2019-06-27T18:07:23.947Z,23.23
2019-06-27T18:11:26.198Z,23.21
2019-06-27T18:15:28.473Z,23.22
2019-06-27T18:19:30.752Z,23.24
2019-06-27T18:23:33.013Z,23.14
2019-06-27T18:27:35.237Z,23.18
2019-06-27T18:31:37.492Z,23.14
2019-06-27T18:35:39.809Z,23.18
2019-06-27T18:39:42.128Z,23.18
2019-06-27T18:43:44.364Z,23.19
2019-06-27T18:47:46.604Z,23.20
2019-06-27T18:51:48.851Z,23.11
2019-06-27T18:55:51.083Z,23.14
2019-06-27T18:59:53.882Z,23.15
2019-06-27T19:03:56.192Z,22.99
2019-06-27T19:07:58.436Z,22.95
2019-06-27T19:12:00.666Z,22.94
2019-06-27T19:16:02.929Z,22.92
2019-06-27T19:20:09.582Z,22.90
2019-06-27T19:24:29.440Z,22.85
2019-06-27T19:28:31.717Z,22.81
2019-06-27T19:32:34.027Z,22.83
2019-06-27T19:36:36.223Z,22.81
2019-06-27T19:40:38.442Z,22.81
2019-06-27T19:44:40.713Z,22.81
2019-06-27T19:48:45.621Z,22.79
2019-06-27T19:52:46.963Z,22.79
2019-06-27T19:56:49.200Z,22.73
2019-06-27T20:00:51.421Z,22.81
2019-06-27T20:04:53.765Z,22.73
2019-06-27T20:08:56.010Z,22.73
2019-06-27T20:12:58.223Z,22.68
2019-06-27T20:17:00.465Z,22.65
2019-06-27T20:21:02.752Z,22.74
2019-06-27T20:25:04.947Z,22.71
2019-06-27T20:29:07.184Z,22.79
2019-06-27T20:33:09.440Z,22.85
2019-06-27T20:37:11.659Z,22.77
2019-06-27T20:41:13.908Z,22.74
2019-06-27T20:45:16.152Z,22.71
2019-06-27T20:49:18.383Z,22.76
2019-06-27T20:53:20.609Z,22.79
2019-06-27T20:57:23.169Z,22.72
2019-06-27T21:01:25.384Z,22.72
2019-06-27T21:05:27.612Z,22.63
2019-06-27T21:09:29.880Z,22.68
2019-06-27T21:13:32.143Z,22.65
2019-06-27T21:17:34.348Z,22.61
2019-06-27T21:21:36.612Z,22.52
2019-06-27T21:25:38.815Z,22.55
2019-06-27T21:29:41.044Z,22.50
2019-06-27T21:33:43.329Z,22.50
2019-06-27T21:37:45.558Z,22.48
2019-06-27T21:41:47.794Z,22.45
2019-06-27T21:45:50.131Z,22.45
2019-06-27T21:49:52.357Z,22.48
2019-06-27T21:53:54.675Z,22.45
2019-06-27T21:57:59.869Z,22.45
2019-06-27T22:02:00.826Z,22.45
2019-06-27T22:06:03.168Z,22.44
2019-06-27T22:10:05.482Z,22.36
2019-06-27T22:14:07.725Z,22.33
2019-06-27T22:18:09.911Z,22.32
2019-06-27T22:22:12.140Z,22.27
2019-06-27T22:26:14.394Z,22.28
2019-06-27T22:30:16.609Z,22.32
2019-06-27T22:34:18.814Z,22.30
2019-06-27T22:38:38.537Z,22.32
2019-06-27T22:42:58.535Z,22.31
2019-06-27T22:47:18.587Z,22.29
2019-06-27T22:51:35.665Z,22.29
2019-06-27T22:55:37.888Z,22.28
2019-06-27T22:59:40.091Z,22.24
2019-06-27T23:03:42.297Z,22.24
2019-06-27T23:07:44.495Z,22.22
2019-06-27T23:11:46.727Z,22.22
2019-06-27T23:15:48.938Z,22.22
2019-06-27T23:19:51.158Z,22.18
2019-06-27T23:23:53.338Z,22.24
2019-06-27T23:27:55.543Z,22.19
2019-06-27T23:31:57.764Z,22.23
2019-06-27T23:35:59.989Z,22.19
2019-06-27T23:40:13.401Z,22.17
2019-06-27T23:44:06.060Z,22.18
2019-06-27T23:48:08.264Z,22.20
2019-06-27T23:52:10.477Z,22.21
2019-06-27T23:56:12.674Z,22.18
